sensor_id;sensor_type;location;lat;lon;timestamp;P1;durP1;ratioP1;P2;durP2;ratioP2
28166;SDS011;15455;53.376;-6.262;2022-11-15T00:01:34;3.22;;;1.08;;
28166;SDS011;15455;53.376;-6.262;2022-11-15T00:04:40;7.15;;;0.85;;
28166;SDS011;15455;53.376;-6.262;2022-11-15T00:07:45;5.55;;;1.63;;
28166;SDS011;15455;53.376;-6.262;2022-11-15T00:10:59;2.17;;;0.77;;
28166;SDS011;15455;53.376;-6.262;2022-11-15T00:14:04;3.58;;;0.90;;
28166;SDS011;15455;53.376;-6.262;2022-11-15T00:17:09;3.88;;;0.95;;
28166;SDS011;15455;53.376;-6.262;2022-11-15T00:20:13;3.50;;;1.20;;
28166;SDS011;15455;53.376;-6.262;2022-11-15T00:23:18;8.20;;;0.70;;
28166;SDS011;15455;53.376;-6.262;2022-11-15T00:26:23;2.33;;;0.73;;
28166;SDS011;15455;53.376;-6.262;2022-11-15T00:29:27;2.35;;;0.63;;
28166;SDS011;15455;53.376;-6.262;2022-11-15T00:32:32;1.40;;;0.73;;
28166;SDS011;15455;53.376;-6.262;2022-11-15T00:35:36;2.20;;;0.55;;
28166;SDS011;15455;53.376;-6.262;2022-11-15T00:38:41;2.05;;;0.50;;
28166;SDS011;15455;53.376;-6.262;2022-11-15T00:41:45;3.50;;;0.85;;
28166;SDS011;15455;53.376;-6.262;2022-11-15T00:44:49;1.13;;;0.55;;
28166;SDS011;15455;53.376;-6.262;2022-11-15T00:47:53;2.95;;;0.82;;
28166;SDS011;15455;53.376;-6.262;2022-11-15T00:50:58;5.28;;;1.20;;
28166;SDS011;15455;53.376;-6.262;2022-11-15T00:54:02;2.83;;;0.70;;
28166;SDS011;15455;53.376;-6.262;2022-11-15T00:57:07;1.63;;;0.90;;
28166;SDS011;15455;53.376;-6.262;2022-11-15T01:00:11;1.20;;;0.77;;
28166;SDS011;15455;53.376;-6.262;2022-11-15T01:03:16;2.85;;;0.95;;
28166;SDS011;15455;53.376;-6.262;2022-11-15T01:06:20;4.60;;;0.90;;
28166;SDS011;15455;53.376;-6.262;2022-11-15T01:09:25;4.32;;;1.00;;
28166;SDS011;15455;53.376;-6.262;2022-11-15T01:12:29;3.10;;;0.82;;
28166;SDS011;15455;53.376;-6.262;2022-11-15T01:15:33;0.40;;;0.40;;
28166;SDS011;15455;53.376;-6.262;2022-11-15T01:18:38;2.60;;;0.82;;
28166;SDS011;15455;53.376;-6.262;2022-11-15T01:21:42;4.20;;;0.90;;
28166;SDS011;15455;53.376;-6.262;2022-11-15T01:24:48;1.15;;;0.60;;
28166;SDS011;15455;53.376;-6.262;2022-11-15T01:27:53;1.58;;;0.68;;
28166;SDS011;15455;53.376;-6.262;2022-11-15T01:31:01;1.42;;;0.63;;
28166;SDS011;15455;53.376;-6.262;2022-11-15T01:34:06;1.80;;;0.68;;
28166;SDS011;15455;53.376;-6.262;2022-11-15T01:37:10;2.80;;;0.60;;
28166;SDS011;15455;53.376;-6.262;2022-11-15T01:40:15;0.45;;;0.40;;
28166;SDS011;15455;53.376;-6.262;2022-11-15T01:43:23;2.47;;;0.60;;
28166;SDS011;15455;53.376;-6.262;2022-11-15T01:46:32;1.75;;;0.70;;
28166;SDS011;15455;53.376;-6.262;2022-11-15T01:49:39;3.60;;;0.55;;
28166;SDS011;15455;53.376;-6.262;2022-11-15T01:52:50;3.13;;;1.00;;
28166;SDS011;15455;53.376;-6.262;2022-11-15T01:55:54;0.90;;;0.52;;
28166;SDS011;15455;53.376;-6.262;2022-11-15T01:59:00;1.65;;;0.65;;
28166;SDS011;15455;53.376;-6.262;2022-11-15T02:02:08;1.83;;;0.68;;
28166;SDS011;15455;53.376;-6.262;2022-11-15T02:05:12;2.40;;;0.90;;
28166;SDS011;15455;53.376;-6.262;2022-11-15T02:08:17;1.48;;;0.30;;
28166;SDS011;15455;53.376;-6.262;2022-11-15T02:11:24;1.25;;;0.10;;
28166;SDS011;15455;53.376;-6.262;2022-11-15T02:14:29;2.03;;;0.10;;
28166;SDS011;15455;53.376;-6.262;2022-11-15T02:18:22;1.65;;;0.20;;
28166;SDS011;15455;53.376;-6.262;2022-11-15T02:21:21;2.45;;;0.35;;
28166;SDS011;15455;53.376;-6.262;2022-11-15T02:28:12;3.45;;;0.40;;
28166;SDS011;15455;53.376;-6.262;2022-11-15T02:34:53;5.93;;;0.85;;
28166;SDS011;15455;53.376;-6.262;2022-11-15T02:38:17;3.83;;;0.47;;
28166;SDS011;15455;53.376;-6.262;2022-11-15T02:41:47;1.83;;;0.52;;
28166;SDS011;15455;53.376;-6.262;2022-11-15T02:44:54;1.75;;;0.40;;
28166;SDS011;15455;53.376;-6.262;2022-11-15T02:48:02;6.88;;;0.57;;
28166;SDS011;15455;53.376;-6.262;2022-11-15T02:51:10;3.78;;;0.65;;
28166;SDS011;15455;53.376;-6.262;2022-11-15T02:54:26;10.38;;;0.80;;
28166;SDS011;15455;53.376;-6.262;2022-11-15T03:00:45;4.57;;;0.98;;
28166;SDS011;15455;53.376;-6.262;2022-11-15T03:07:37;7.22;;;1.08;;
28166;SDS011;15455;53.376;-6.262;2022-11-15T03:17:33;6.72;;;1.27;;
28166;SDS011;15455;53.376;-6.262;2022-11-15T03:20:42;7.75;;;0.82;;
28166;SDS011;15455;53.376;-6.262;2022-11-15T03:23:48;2.20;;;0.75;;
28166;SDS011;15455;53.376;-6.262;2022-11-15T03:26:55;7.78;;;0.95;;
28166;SDS011;15455;53.376;-6.262;2022-11-15T03:30:05;3.28;;;0.93;;
28166;SDS011;15455;53.376;-6.262;2022-11-15T03:33:11;5.80;;;0.95;;
28166;SDS011;15455;53.376;-6.262;2022-11-15T03:36:16;7.28;;;1.13;;
28166;SDS011;15455;53.376;-6.262;2022-11-15T03:39:21;14.00;;;1.40;;
28166;SDS011;15455;53.376;-6.262;2022-11-15T03:42:28;13.52;;;1.55;;
28166;SDS011;15455;53.376;-6.262;2022-11-15T03:45:47;12.98;;;1.08;;
28166;SDS011;15455;53.376;-6.262;2022-11-15T03:49:09;15.00;;;1.58;;
28166;SDS011;15455;53.376;-6.262;2022-11-15T03:52:19;7.00;;;1.20;;
28166;SDS011;15455;53.376;-6.262;2022-11-15T03:55:25;8.02;;;1.42;;
28166;SDS011;15455;53.376;-6.262;2022-11-15T03:58:30;4.80;;;1.30;;
28166;SDS011;15455;53.376;-6.262;2022-11-15T04:01:35;4.07;;;1.13;;
28166;SDS011;15455;53.376;-6.262;2022-11-15T04:04:39;12.60;;;1.67;;
28166;SDS011;15455;53.376;-6.262;2022-11-15T04:07:44;11.93;;;1.40;;
28166;SDS011;15455;53.376;-6.262;2022-11-15T04:10:48;4.13;;;1.35;;
28166;SDS011;15455;53.376;-6.262;2022-11-15T04:13:53;16.38;;;1.77;;
28166;SDS011;15455;53.376;-6.262;2022-11-15T04:16:57;16.58;;;1.40;;
28166;SDS011;15455;53.376;-6.262;2022-11-15T04:20:03;5.32;;;0.90;;
28166;SDS011;15455;53.376;-6.262;2022-11-15T04:23:27;8.10;;;1.27;;
28166;SDS011;15455;53.376;-6.262;2022-11-15T04:29:54;9.52;;;1.65;;
28166;SDS011;15455;53.376;-6.262;2022-11-15T04:33:00;10.68;;;1.38;;
28166;SDS011;15455;53.376;-6.262;2022-11-15T04:36:05;8.48;;;0.90;;
28166;SDS011;15455;53.376;-6.262;2022-11-15T04:39:28;7.75;;;1.05;;
28166;SDS011;15455;53.376;-6.262;2022-11-15T04:42:32;5.97;;;0.95;;
28166;SDS011;15455;53.376;-6.262;2022-11-15T04:45:37;4.25;;;1.10;;
28166;SDS011;15455;53.376;-6.262;2022-11-15T04:48:41;19.95;;;1.67;;
28166;SDS011;15455;53.376;-6.262;2022-11-15T04:51:45;4.70;;;0.80;;
28166;SDS011;15455;53.376;-6.262;2022-11-15T04:54:49;8.82;;;1.17;;
28166;SDS011;15455;53.376;-6.262;2022-11-15T04:57:57;3.03;;;0.68;;
28166;SDS011;15455;53.376;-6.262;2022-11-15T05:01:10;9.15;;;1.20;;
28166;SDS011;15455;53.376;-6.262;2022-11-15T05:04:16;10.27;;;1.13;;
28166;SDS011;15455;53.376;-6.262;2022-11-15T05:07:23;10.18;;;1.10;;
28166;SDS011;15455;53.376;-6.262;2022-11-15T05:10:27;16.00;;;1.73;;
28166;SDS011;15455;53.376;-6.262;2022-11-15T05:13:31;16.48;;;1.40;;
28166;SDS011;15455;53.376;-6.262;2022-11-15T05:16:36;10.02;;;1.05;;
28166;SDS011;15455;53.376;-6.262;2022-11-15T05:19:41;15.95;;;1.73;;
28166;SDS011;15455;53.376;-6.262;2022-11-15T05:22:45;5.55;;;1.20;;
28166;SDS011;15455;53.376;-6.262;2022-11-15T05:25:50;11.30;;;1.27;;
28166;SDS011;15455;53.376;-6.262;2022-11-15T05:28:54;9.30;;;1.42;;
28166;SDS011;15455;53.376;-6.262;2022-11-15T05:32:00;15.00;;;2.20;;
28166;SDS011;15455;53.376;-6.262;2022-11-15T05:35:05;11.10;;;1.15;;
28166;SDS011;15455;53.376;-6.262;2022-11-15T05:38:13;17.52;;;1.63;;
28166;SDS011;15455;53.376;-6.262;2022-11-15T05:41:20;14.88;;;1.50;;
28166;SDS011;15455;53.376;-6.262;2022-11-15T05:44:28;13.10;;;1.45;;
28166;SDS011;15455;53.376;-6.262;2022-11-15T05:47:34;11.30;;;1.35;;
28166;SDS011;15455;53.376;-6.262;2022-11-15T05:50:41;14.80;;;1.10;;
28166;SDS011;15455;53.376;-6.262;2022-11-15T05:53:49;10.25;;;1.23;;
28166;SDS011;15455;53.376;-6.262;2022-11-15T05:56:55;11.10;;;1.33;;
28166;SDS011;15455;53.376;-6.262;2022-11-15T06:00:00;15.10;;;1.42;;
28166;SDS011;15455;53.376;-6.262;2022-11-15T06:03:05;9.75;;;1.65;;
28166;SDS011;15455;53.376;-6.262;2022-11-15T06:06:09;9.50;;;0.95;;
28166;SDS011;15455;53.376;-6.262;2022-11-15T06:09:19;18.17;;;1.40;;
28166;SDS011;15455;53.376;-6.262;2022-11-15T06:12:23;10.27;;;1.52;;
28166;SDS011;15455;53.376;-6.262;2022-11-15T06:15:27;14.02;;;1.65;;
28166;SDS011;15455;53.376;-6.262;2022-11-15T06:18:33;15.70;;;1.80;;
28166;SDS011;15455;53.376;-6.262;2022-11-15T06:21:38;12.50;;;1.98;;
28166;SDS011;15455;53.376;-6.262;2022-11-15T06:24:43;13.43;;;2.13;;
28166;SDS011;15455;53.376;-6.262;2022-11-15T06:27:51;14.30;;;2.08;;
28166;SDS011;15455;53.376;-6.262;2022-11-15T06:30:56;11.48;;;2.00;;
28166;SDS011;15455;53.376;-6.262;2022-11-15T06:34:06;13.00;;;1.85;;
28166;SDS011;15455;53.376;-6.262;2022-11-15T06:37:10;13.15;;;1.73;;
28166;SDS011;15455;53.376;-6.262;2022-11-15T06:40:14;13.45;;;1.67;;
28166;SDS011;15455;53.376;-6.262;2022-11-15T06:43:19;11.35;;;1.63;;
28166;SDS011;15455;53.376;-6.262;2022-11-15T06:46:23;4.03;;;1.63;;
28166;SDS011;15455;53.376;-6.262;2022-11-15T06:49:28;9.80;;;1.42;;
28166;SDS011;15455;53.376;-6.262;2022-11-15T06:52:32;14.25;;;1.55;;
28166;SDS011;15455;53.376;-6.262;2022-11-15T06:55:36;9.95;;;1.42;;
28166;SDS011;15455;53.376;-6.262;2022-11-15T06:58:40;11.18;;;2.00;;
28166;SDS011;15455;53.376;-6.262;2022-11-15T07:01:45;15.80;;;1.70;;
28166;SDS011;15455;53.376;-6.262;2022-11-15T07:04:49;16.52;;;2.28;;
28166;SDS011;15455;53.376;-6.262;2022-11-15T07:07:54;19.08;;;2.83;;
28166;SDS011;15455;53.376;-6.262;2022-11-15T07:11:00;10.35;;;1.92;;
28166;SDS011;15455;53.376;-6.262;2022-11-15T07:14:08;20.15;;;2.13;;
28166;SDS011;15455;53.376;-6.262;2022-11-15T07:17:13;12.40;;;2.67;;
28166;SDS011;15455;53.376;-6.262;2022-11-15T07:20:17;10.00;;;1.42;;
28166;SDS011;15455;53.376;-6.262;2022-11-15T07:23:22;11.05;;;1.60;;
28166;SDS011;15455;53.376;-6.262;2022-11-15T07:26:26;14.82;;;2.35;;
28166;SDS011;15455;53.376;-6.262;2022-11-15T07:29:31;9.02;;;2.10;;
28166;SDS011;15455;53.376;-6.262;2022-11-15T07:32:35;13.32;;;1.65;;
28166;SDS011;15455;53.376;-6.262;2022-11-15T07:35:40;12.65;;;1.60;;
28166;SDS011;15455;53.376;-6.262;2022-11-15T07:38:44;11.07;;;1.70;;
28166;SDS011;15455;53.376;-6.262;2022-11-15T07:41:48;13.60;;;1.65;;
28166;SDS011;15455;53.376;-6.262;2022-11-15T07:45:12;17.42;;;2.13;;
28166;SDS011;15455;53.376;-6.262;2022-11-15T07:48:16;9.00;;;1.45;;
28166;SDS011;15455;53.376;-6.262;2022-11-15T07:51:21;18.10;;;1.85;;
28166;SDS011;15455;53.376;-6.262;2022-11-15T07:54:25;5.88;;;1.60;;
28166;SDS011;15455;53.376;-6.262;2022-11-15T07:57:29;18.73;;;2.05;;
28166;SDS011;15455;53.376;-6.262;2022-11-15T08:00:34;9.32;;;1.50;;
28166;SDS011;15455;53.376;-6.262;2022-11-15T08:03:40;12.02;;;1.40;;
28166;SDS011;15455;53.376;-6.262;2022-11-15T08:06:44;10.52;;;2.33;;
28166;SDS011;15455;53.376;-6.262;2022-11-15T08:09:48;13.05;;;1.60;;
28166;SDS011;15455;53.376;-6.262;2022-11-15T08:13:00;13.70;;;2.20;;
28166;SDS011;15455;53.376;-6.262;2022-11-15T08:19:10;8.85;;;1.45;;
28166;SDS011;15455;53.376;-6.262;2022-11-15T08:22:14;14.07;;;2.22;;
28166;SDS011;15455;53.376;-6.262;2022-11-15T08:25:19;5.50;;;1.35;;
28166;SDS011;15455;53.376;-6.262;2022-11-15T08:28:23;8.13;;;2.00;;
28166;SDS011;15455;53.376;-6.262;2022-11-15T08:31:27;10.85;;;1.58;;
28166;SDS011;15455;53.376;-6.262;2022-11-15T08:34:32;10.18;;;1.95;;
28166;SDS011;15455;53.376;-6.262;2022-11-15T08:37:36;10.82;;;2.25;;
28166;SDS011;15455;53.376;-6.262;2022-11-15T08:40:41;14.00;;;2.53;;
28166;SDS011;15455;53.376;-6.262;2022-11-15T08:43:45;15.05;;;2.55;;
28166;SDS011;15455;53.376;-6.262;2022-11-15T08:46:50;18.85;;;2.65;;
28166;SDS011;15455;53.376;-6.262;2022-11-15T08:49:54;11.55;;;2.13;;
28166;SDS011;15455;53.376;-6.262;2022-11-15T08:53:04;11.40;;;2.63;;
28166;SDS011;15455;53.376;-6.262;2022-11-15T08:56:10;6.95;;;1.67;;
28166;SDS011;15455;53.376;-6.262;2022-11-15T08:59:16;15.35;;;2.10;;
28166;SDS011;15455;53.376;-6.262;2022-11-15T09:02:21;13.70;;;3.55;;
28166;SDS011;15455;53.376;-6.262;2022-11-15T09:05:25;22.73;;;2.55;;
28166;SDS011;15455;53.376;-6.262;2022-11-15T09:08:30;15.57;;;2.45;;
28166;SDS011;15455;53.376;-6.262;2022-11-15T09:11:51;13.93;;;2.45;;
28166;SDS011;15455;53.376;-6.262;2022-11-15T09:15:00;16.75;;;2.28;;
28166;SDS011;15455;53.376;-6.262;2022-11-15T09:18:05;9.55;;;1.95;;
28166;SDS011;15455;53.376;-6.262;2022-11-15T09:21:09;16.55;;;1.80;;
28166;SDS011;15455;53.376;-6.262;2022-11-15T09:24:14;7.88;;;2.13;;
28166;SDS011;15455;53.376;-6.262;2022-11-15T09:27:18;4.80;;;1.80;;
28166;SDS011;15455;53.376;-6.262;2022-11-15T09:30:23;14.30;;;2.35;;
28166;SDS011;15455;53.376;-6.262;2022-11-15T09:33:28;12.45;;;2.30;;
28166;SDS011;15455;53.376;-6.262;2022-11-15T09:36:33;19.75;;;1.85;;
28166;SDS011;15455;53.376;-6.262;2022-11-15T09:39:38;18.10;;;2.13;;
